Detalii statie FIRST FARMS FAUREI [00001992]

Toti senzorii

Date Temperatura solului [C]Precipitatii [mm]Voltaj baterie [mV]Leaf Wetness [Min]HC Air temperature [C]HC Relative humidity [%]Punctul de roua [C]
medieminmaxsumaultimatimpmedieminmaxmediemediemin
2020-01-21 22:00:00 0.9 0.8 1 0 6854 -2.99 -3.4 -2.56 0.07 0 0
2020-01-21 23:00:00 0.9 0.8 1 0 6844 -3.4 -3.57 -3.24 0 0 0
2020-01-22 00:00:00 0.9 0.8 1 0 6854 -3.78 -4.2 -3.45 0 0 0
2020-01-22 01:00:00 0.8 0.7 0.9 0 6844 -3.76 -4.1 -3.37 0 0 0
2020-01-22 02:00:00 0.7 0.7 0.8 0 6844 -2.68 -3.49 -2.12 0 0 0
2020-01-22 03:00:00 0.7 0.5 0.8 0 6826 -2.33 -2.9 -2.04 0.49 0
2020-01-22 04:00:00 0.7 0.6 0.8 0 6816 -3.35 -3.66 -2.95 0 0 0
2020-01-22 05:00:00 0.6 0.6 0.8 0 6826 -3.86 -4.16 -3.45 0.04 0 0
2020-01-22 06:00:00 0.6 0.6 0.7 0 6748 -3.3 -3.46 -3.15 6.61 0
2020-01-22 07:00:00 0.6 0.4 0.7 0 6776 -3.54 -4.01 -3.18 11.79 0
2020-01-22 08:00:00 0.5 0.5 0.6 0 6776 -3.84 -4.19 -3.38 8.57 -13.9 0
2020-01-22 09:00:00 0.5 0.5 0.6 0 7226 -2.58 -3.34 -1.73 3.11 0
2020-01-22 10:00:00 0.5 0.5 0.6 0 7226 0.3 -1.39 1.88 6.01 0
2020-01-22 11:00:00 0.5 0.3 0.6 0 7216 3.1 2.01 4.3 0 0 0
2020-01-22 12:00:00 0.5 0.5 0.6 0 7216 5.37 4.44 6.15 0 0 0
2020-01-22 13:00:00 0.5 0.5 0.6 0 7206 7.46 6.33 8.4 0 0 0
2020-01-22 14:00:00 0.6 0.6 0.7 0 7196 8.41 7.87 9.03 0 0 0
2020-01-22 15:00:00 0.6 0.6 0.8 0 7206 8.3 7.83 8.87 0 0 0
2020-01-22 16:00:00 0.7 0.7 0.9 0 7206 8.41 7.43 9.07 0 0 0
2020-01-22 17:00:00 0.9 0.8 1.1 0 7070 5.77 4.3 7.18 0 0 0
2020-01-22 18:00:00 1 0.9 1.1 0 6914 3.61 2.39 4.21 7.9 -25.1 0
2020-01-22 19:00:00 1 0.9 1.2 0 6854 2.14 1.01 3.09 8.96 0
2020-01-22 20:00:00 1 0.9 1.1 0 6844 0.65 0.3 0.96 7.48 0
2020-01-22 21:00:00 0.9 0.8 1 0 6874 6.74 4.02 8.23 0 0 0
2020-01-22 22:00:00 0.8 0.8 0.9 0 6884 6.43 5.95 7.28 0 0 0
2020-01-22 23:00:00 0.8 0.8 0.9 0 6854 5.07 4.67 5.66 1.08 -5.3 0
2020-01-23 00:00:00 0.8 0.8 0.9 0 6826 4.59 4.01 5.06 2.36 0
2020-01-23 01:00:00 0.9 0.8 1.1 0 6816 4.92 4.36 5.3 21.36 0
2020-01-23 02:00:00 0.9 0.8 1.1 0 6806 3.41 2.04 4.34 86.81 1.2 0.5
2020-01-23 03:00:00 0.9 0.8 1.1 0 6816 1.45 0.94 1.72 93.68 0.4 0
2020-01-23 04:00:00 0.8 0.8 0.9 0 6806 0.44 -0.09 1 99.86 0.3 0
2020-01-23 05:00:00 0.8 0.8 0.9 0 6806 -0.65 -1.73 0.17 100 -0.5 -1.6
2020-01-23 06:00:00 0.8 0.7 0.9 0 6786 -0.89 -2.08 0.25 99.93 -0.8 -1.9
2020-01-23 07:00:00 0.7 0.6 0.8 0 6786 0.43 -1.15 1.07 99.55 0.3 -1
2020-01-23 08:00:00 0.7 0.7 0.9 0 6776 -0.36 -0.72 0.41 100 -0.2 -0.6
2020-01-23 09:00:00 0.7 0.5 0.9 0 6806 0.57 0.12 1.42 99.98 0.5 0.1
2020-01-23 10:00:00 0.7 0.6 0.8 0 7088 2.39 1.61 3.48 93.48 1.3 1
2020-01-23 11:00:00 0.7 0.6 0.8 0 7216 4.19 3.49 5.18 84.18 1.6 1.1
2020-01-23 12:00:00 0.7 0.7 0.9 0 7216 6.3 5.14 6.77 71.28 1.3 0.7
2020-01-23 13:00:00 0.8 0.8 1 0 7216 7.16 6.82 7.87 66.35 1.2 0.8
2020-01-23 14:00:00 1 1 1.2 0 7216 7.49 7.22 7.81 65.18 1.2 0.5
2020-01-23 15:00:00 1.3 1.2 1.4 0 7216 7.18 6.95 7.45 63.97 0.6 0
2020-01-23 16:00:00 1.5 1.4 1.6 0 7206 6.26 5.29 6.8 65.22 0 -0.2
2020-01-23 17:00:00 1.6 1.6 1.7 0 7088 4.1 3 5.17 70.4 -0.8 -1.5
2020-01-23 18:00:00 1.6 1.5 1.7 0 6972 2.07 1.51 2.74 75.29 -1.8 -2.2
2020-01-23 19:00:00 1.5 1.4 1.6 0 6952 0.84 -0.13 1.6 79.26 -2.3 -2.9
2020-01-23 20:00:00 1.3 1.3 1.5 0 6894 -1.03 -1.55 -0.24 83.37 -3.4 -3.9
2020-01-23 21:00:00 1.2 1.2 1.3 0 6864 -2.23 -2.97 -1.22 87.2 -4 -4.2